sensor_id;sensor_type;location;lat;lon;timestamp;P1;durP1;ratioP1;P2;durP2;ratioP2
26756;SDS011;23848;49.798;10.228;2023-06-22T00:01:23;13.10;;;10.90;;
26756;SDS011;23848;49.798;10.228;2023-06-22T00:03:53;15.13;;;10.85;;
26756;SDS011;23848;49.798;10.228;2023-06-22T00:06:21;14.70;;;11.40;;
26756;SDS011;23848;49.798;10.228;2023-06-22T00:08:49;15.18;;;10.80;;
26756;SDS011;23848;49.798;10.228;2023-06-22T00:11:18;13.90;;;11.65;;
26756;SDS011;23848;49.798;10.228;2023-06-22T00:13:47;16.05;;;12.00;;
26756;SDS011;23848;49.798;10.228;2023-06-22T00:16:17;12.55;;;10.90;;
26756;SDS011;23848;49.798;10.228;2023-06-22T00:18:45;13.93;;;11.82;;
26756;SDS011;23848;49.798;10.228;2023-06-22T00:21:16;14.50;;;11.88;;
26756;SDS011;23848;49.798;10.228;2023-06-22T00:23:46;14.32;;;11.27;;
26756;SDS011;23848;49.798;10.228;2023-06-22T00:26:15;13.18;;;11.02;;
26756;SDS011;23848;49.798;10.228;2023-06-22T00:28:43;15.65;;;11.05;;
26756;SDS011;23848;49.798;10.228;2023-06-22T00:31:12;13.57;;;11.27;;
26756;SDS011;23848;49.798;10.228;2023-06-22T00:33:40;15.85;;;11.75;;
26756;SDS011;23848;49.798;10.228;2023-06-22T00:36:09;15.23;;;12.07;;
26756;SDS011;23848;49.798;10.228;2023-06-22T00:38:40;14.27;;;11.38;;
26756;SDS011;23848;49.798;10.228;2023-06-22T00:41:09;16.58;;;12.02;;
26756;SDS011;23848;49.798;10.228;2023-06-22T00:43:37;16.23;;;12.20;;
26756;SDS011;23848;49.798;10.228;2023-06-22T00:46:07;17.27;;;12.85;;
26756;SDS011;23848;49.798;10.228;2023-06-22T00:48:35;14.48;;;11.90;;
26756;SDS011;23848;49.798;10.228;2023-06-22T00:51:03;15.38;;;12.40;;
26756;SDS011;23848;49.798;10.228;2023-06-22T00:53:32;15.02;;;12.05;;
26756;SDS011;23848;49.798;10.228;2023-06-22T00:56:04;15.80;;;12.73;;
26756;SDS011;23848;49.798;10.228;2023-06-22T00:58:35;15.65;;;12.15;;
26756;SDS011;23848;49.798;10.228;2023-06-22T01:01:07;14.33;;;11.90;;
26756;SDS011;23848;49.798;10.228;2023-06-22T01:03:36;14.95;;;12.35;;
26756;SDS011;23848;49.798;10.228;2023-06-22T01:06:06;13.60;;;11.07;;
26756;SDS011;23848;49.798;10.228;2023-06-22T01:08:38;16.08;;;11.70;;
26756;SDS011;23848;49.798;10.228;2023-06-22T01:11:12;14.43;;;11.75;;
26756;SDS011;23848;49.798;10.228;2023-06-22T01:13:45;17.25;;;12.93;;
26756;SDS011;23848;49.798;10.228;2023-06-22T01:16:17;17.25;;;12.35;;
26756;SDS011;23848;49.798;10.228;2023-06-22T01:18:47;14.80;;;12.45;;
26756;SDS011;23848;49.798;10.228;2023-06-22T01:21:16;17.75;;;12.07;;
26756;SDS011;23848;49.798;10.228;2023-06-22T01:23:51;15.65;;;11.23;;
26756;SDS011;23848;49.798;10.228;2023-06-22T01:26:25;12.65;;;11.00;;
26756;SDS011;23848;49.798;10.228;2023-06-22T01:28:56;13.73;;;10.82;;
26756;SDS011;23848;49.798;10.228;2023-06-22T01:31:26;15.05;;;11.88;;
26756;SDS011;23848;49.798;10.228;2023-06-22T01:33:57;15.73;;;11.68;;
26756;SDS011;23848;49.798;10.228;2023-06-22T01:36:26;14.88;;;11.80;;
26756;SDS011;23848;49.798;10.228;2023-06-22T01:38:55;14.23;;;11.68;;
26756;SDS011;23848;49.798;10.228;2023-06-22T01:41:25;17.42;;;12.43;;
26756;SDS011;23848;49.798;10.228;2023-06-22T01:43:54;17.92;;;12.25;;
26756;SDS011;23848;49.798;10.228;2023-06-22T01:46:25;17.60;;;11.68;;
26756;SDS011;23848;49.798;10.228;2023-06-22T01:48:53;15.93;;;12.57;;
26756;SDS011;23848;49.798;10.228;2023-06-22T01:51:23;14.57;;;12.23;;
26756;SDS011;23848;49.798;10.228;2023-06-22T01:53:52;14.65;;;11.90;;
26756;SDS011;23848;49.798;10.228;2023-06-22T01:56:20;15.38;;;11.57;;
26756;SDS011;23848;49.798;10.228;2023-06-22T01:58:50;16.45;;;12.93;;
26756;SDS011;23848;49.798;10.228;2023-06-22T02:01:20;16.02;;;13.40;;
26756;SDS011;23848;49.798;10.228;2023-06-22T02:03:53;15.63;;;12.75;;
26756;SDS011;23848;49.798;10.228;2023-06-22T02:06:25;16.02;;;12.57;;
26756;SDS011;23848;49.798;10.228;2023-06-22T02:08:55;15.45;;;12.68;;
26756;SDS011;23848;49.798;10.228;2023-06-22T02:11:25;17.77;;;12.90;;
26756;SDS011;23848;49.798;10.228;2023-06-22T02:13:55;18.55;;;12.98;;
26756;SDS011;23848;49.798;10.228;2023-06-22T02:16:23;19.27;;;13.88;;
26756;SDS011;23848;49.798;10.228;2023-06-22T02:18:57;16.23;;;14.07;;
26756;SDS011;23848;49.798;10.228;2023-06-22T02:21:30;17.42;;;13.50;;
26756;SDS011;23848;49.798;10.228;2023-06-22T02:23:58;17.63;;;14.40;;
26756;SDS011;23848;49.798;10.228;2023-06-22T02:26:26;18.05;;;14.45;;
26756;SDS011;23848;49.798;10.228;2023-06-22T02:28:55;17.10;;;14.05;;
26756;SDS011;23848;49.798;10.228;2023-06-22T02:31:23;17.00;;;14.90;;
26756;SDS011;23848;49.798;10.228;2023-06-22T02:36:26;18.15;;;14.93;;
26756;SDS011;23848;49.798;10.228;2023-06-22T02:38:58;17.48;;;14.50;;
26756;SDS011;23848;49.798;10.228;2023-06-22T02:41:27;18.95;;;15.93;;
26756;SDS011;23848;49.798;10.228;2023-06-22T02:43:56;18.02;;;14.82;;
26756;SDS011;23848;49.798;10.228;2023-06-22T02:46:25;18.17;;;15.05;;
26756;SDS011;23848;49.798;10.228;2023-06-22T02:48:53;18.75;;;15.30;;
26756;SDS011;23848;49.798;10.228;2023-06-22T02:51:22;21.17;;;16.70;;
26756;SDS011;23848;49.798;10.228;2023-06-22T02:53:52;20.75;;;15.90;;
26756;SDS011;23848;49.798;10.228;2023-06-22T02:56:24;19.60;;;16.42;;
26756;SDS011;23848;49.798;10.228;2023-06-22T02:58:52;21.25;;;16.00;;
26756;SDS011;23848;49.798;10.228;2023-06-22T03:01:20;18.95;;;16.17;;
26756;SDS011;23848;49.798;10.228;2023-06-22T03:03:50;20.50;;;15.55;;
26756;SDS011;23848;49.798;10.228;2023-06-22T03:06:19;19.88;;;15.50;;
26756;SDS011;23848;49.798;10.228;2023-06-22T03:08:51;17.25;;;15.20;;
26756;SDS011;23848;49.798;10.228;2023-06-22T03:11:20;20.63;;;15.63;;
26756;SDS011;23848;49.798;10.228;2023-06-22T03:13:48;19.70;;;16.00;;
26756;SDS011;23848;49.798;10.228;2023-06-22T03:16:18;19.58;;;14.75;;
26756;SDS011;23848;49.798;10.228;2023-06-22T03:18:46;19.48;;;15.70;;
26756;SDS011;23848;49.798;10.228;2023-06-22T03:21:15;18.33;;;15.75;;
26756;SDS011;23848;49.798;10.228;2023-06-22T03:23:43;18.63;;;15.00;;
26756;SDS011;23848;49.798;10.228;2023-06-22T03:26:16;17.73;;;14.60;;
26756;SDS011;23848;49.798;10.228;2023-06-22T03:28:44;20.17;;;15.50;;
26756;SDS011;23848;49.798;10.228;2023-06-22T03:31:12;18.73;;;15.02;;
26756;SDS011;23848;49.798;10.228;2023-06-22T03:33:41;19.33;;;14.75;;
26756;SDS011;23848;49.798;10.228;2023-06-22T03:36:10;20.08;;;15.00;;
26756;SDS011;23848;49.798;10.228;2023-06-22T03:38:38;17.17;;;13.68;;
26756;SDS011;23848;49.798;10.228;2023-06-22T03:41:08;16.33;;;14.15;;
26756;SDS011;23848;49.798;10.228;2023-06-22T03:43:38;17.25;;;13.63;;
26756;SDS011;23848;49.798;10.228;2023-06-22T03:46:07;16.00;;;13.02;;
26756;SDS011;23848;49.798;10.228;2023-06-22T03:48:35;16.40;;;13.95;;
26756;SDS011;23848;49.798;10.228;2023-06-22T03:51:05;17.38;;;14.40;;
26756;SDS011;23848;49.798;10.228;2023-06-22T03:53:33;19.52;;;14.65;;
26756;SDS011;23848;49.798;10.228;2023-06-22T03:56:02;18.40;;;15.15;;
26756;SDS011;23848;49.798;10.228;2023-06-22T03:58:30;20.90;;;14.70;;
26756;SDS011;23848;49.798;10.228;2023-06-22T04:01:01;19.38;;;15.05;;
26756;SDS011;23848;49.798;10.228;2023-06-22T04:03:29;18.63;;;14.52;;
26756;SDS011;23848;49.798;10.228;2023-06-22T04:05:58;19.83;;;15.43;;
26756;SDS011;23848;49.798;10.228;2023-06-22T04:08:27;21.88;;;15.25;;
26756;SDS011;23848;49.798;10.228;2023-06-22T04:10:56;17.92;;;15.27;;
26756;SDS011;23848;49.798;10.228;2023-06-22T04:13:24;20.00;;;15.63;;
26756;SDS011;23848;49.798;10.228;2023-06-22T04:15:53;19.30;;;15.57;;
26756;SDS011;23848;49.798;10.228;2023-06-22T04:18:22;18.77;;;15.82;;
26756;SDS011;23848;49.798;10.228;2023-06-22T04:20:51;18.92;;;14.88;;
26756;SDS011;23848;49.798;10.228;2023-06-22T04:23:19;18.52;;;15.45;;
26756;SDS011;23848;49.798;10.228;2023-06-22T04:25:48;18.20;;;15.02;;
26756;SDS011;23848;49.798;10.228;2023-06-22T04:28:16;15.85;;;14.05;;
26756;SDS011;23848;49.798;10.228;2023-06-22T04:30:45;17.80;;;14.23;;
26756;SDS011;23848;49.798;10.228;2023-06-22T04:33:13;18.73;;;15.43;;
26756;SDS011;23848;49.798;10.228;2023-06-22T04:35:45;17.35;;;14.48;;
26756;SDS011;23848;49.798;10.228;2023-06-22T04:38:14;16.60;;;14.50;;
26756;SDS011;23848;49.798;10.228;2023-06-22T04:40:42;19.02;;;14.88;;
26756;SDS011;23848;49.798;10.228;2023-06-22T04:43:11;18.17;;;15.40;;
26756;SDS011;23848;49.798;10.228;2023-06-22T04:45:41;19.45;;;14.50;;
26756;SDS011;23848;49.798;10.228;2023-06-22T04:48:10;16.45;;;14.02;;
26756;SDS011;23848;49.798;10.228;2023-06-22T04:50:42;17.25;;;14.65;;
26756;SDS011;23848;49.798;10.228;2023-06-22T04:53:12;17.08;;;14.55;;
26756;SDS011;23848;49.798;10.228;2023-06-22T04:55:41;19.98;;;14.63;;
26756;SDS011;23848;49.798;10.228;2023-06-22T04:58:12;16.38;;;14.52;;
26756;SDS011;23848;49.798;10.228;2023-06-22T05:00:41;17.73;;;14.80;;
26756;SDS011;23848;49.798;10.228;2023-06-22T05:03:10;21.95;;;14.75;;
26756;SDS011;23848;49.798;10.228;2023-06-22T05:05:45;17.15;;;14.32;;
26756;SDS011;23848;49.798;10.228;2023-06-22T05:08:19;18.05;;;15.25;;
26756;SDS011;23848;49.798;10.228;2023-06-22T05:10:47;18.35;;;14.98;;
26756;SDS011;23848;49.798;10.228;2023-06-22T05:13:30;20.33;;;14.77;;
26756;SDS011;23848;49.798;10.228;2023-06-22T05:15:59;16.70;;;14.85;;
26756;SDS011;23848;49.798;10.228;2023-06-22T05:18:29;17.52;;;15.43;;
26756;SDS011;23848;49.798;10.228;2023-06-22T05:20:58;17.65;;;14.07;;
26756;SDS011;23848;49.798;10.228;2023-06-22T05:23:28;18.30;;;13.60;;
26756;SDS011;23848;49.798;10.228;2023-06-22T05:25:57;17.92;;;14.13;;
26756;SDS011;23848;49.798;10.228;2023-06-22T05:28:26;16.50;;;14.13;;
26756;SDS011;23848;49.798;10.228;2023-06-22T05:30:55;18.73;;;15.10;;
26756;SDS011;23848;49.798;10.228;2023-06-22T05:33:23;17.83;;;13.73;;
26756;SDS011;23848;49.798;10.228;2023-06-22T05:35:52;19.45;;;14.85;;
26756;SDS011;23848;49.798;10.228;2023-06-22T05:38:20;18.77;;;14.85;;
26756;SDS011;23848;49.798;10.228;2023-06-22T05:40:51;18.27;;;13.52;;
26756;SDS011;23848;49.798;10.228;2023-06-22T05:43:20;16.73;;;14.43;;
26756;SDS011;23848;49.798;10.228;2023-06-22T05:45:48;16.10;;;13.80;;
26756;SDS011;23848;49.798;10.228;2023-06-22T05:48:17;17.50;;;14.68;;
26756;SDS011;23848;49.798;10.228;2023-06-22T05:50:45;16.75;;;14.10;;
26756;SDS011;23848;49.798;10.228;2023-06-22T05:53:14;16.10;;;13.73;;
26756;SDS011;23848;49.798;10.228;2023-06-22T05:55:43;16.75;;;13.85;;
26756;SDS011;23848;49.798;10.228;2023-06-22T05:58:13;15.48;;;13.88;;
26756;SDS011;23848;49.798;10.228;2023-06-22T06:00:42;17.38;;;13.18;;
26756;SDS011;23848;49.798;10.228;2023-06-22T06:03:12;16.75;;;13.23;;
26756;SDS011;23848;49.798;10.228;2023-06-22T06:05:43;16.92;;;13.75;;
26756;SDS011;23848;49.798;10.228;2023-06-22T06:08:12;15.38;;;13.00;;
26756;SDS011;23848;49.798;10.228;2023-06-22T06:10:41;17.80;;;14.20;;
26756;SDS011;23848;49.798;10.228;2023-06-22T06:13:10;17.90;;;13.55;;
26756;SDS011;23848;49.798;10.228;2023-06-22T06:15:40;17.70;;;14.10;;
26756;SDS011;23848;49.798;10.228;2023-06-22T06:18:09;16.42;;;13.50;;
26756;SDS011;23848;49.798;10.228;2023-06-22T06:20:40;15.77;;;13.60;;
26756;SDS011;23848;49.798;10.228;2023-06-22T06:23:09;17.10;;;12.98;;
26756;SDS011;23848;49.798;10.228;2023-06-22T06:25:38;17.33;;;13.65;;
26756;SDS011;23848;49.798;10.228;2023-06-22T06:28:09;14.98;;;13.07;;
26756;SDS011;23848;49.798;10.228;2023-06-22T06:30:38;15.68;;;13.55;;
26756;SDS011;23848;49.798;10.228;2023-06-22T06:33:09;15.20;;;12.90;;
26756;SDS011;23848;49.798;10.228;2023-06-22T06:35:38;14.30;;;12.43;;
26756;SDS011;23848;49.798;10.228;2023-06-22T06:38:06;15.80;;;13.00;;
26756;SDS011;23848;49.798;10.228;2023-06-22T06:40:35;14.82;;;12.40;;
26756;SDS011;23848;49.798;10.228;2023-06-22T06:43:04;15.45;;;12.38;;
26756;SDS011;23848;49.798;10.228;2023-06-22T06:45:32;13.13;;;11.73;;
26756;SDS011;23848;49.798;10.228;2023-06-22T06:48:01;14.88;;;11.77;;
26756;SDS011;23848;49.798;10.228;2023-06-22T06:50:32;13.90;;;10.85;;
26756;SDS011;23848;49.798;10.228;2023-06-22T06:53:04;14.32;;;11.52;;
26756;SDS011;23848;49.798;10.228;2023-06-22T06:55:32;13.02;;;11.23;;
26756;SDS011;23848;49.798;10.228;2023-06-22T06:58:01;14.15;;;11.15;;
26756;SDS011;23848;49.798;10.228;2023-06-22T07:00:34;14.43;;;11.68;;
26756;SDS011;23848;49.798;10.228;2023-06-22T07:03:03;12.60;;;11.02;;
26756;SDS011;23848;49.798;10.228;2023-06-22T07:05:34;13.63;;;10.95;;
26756;SDS011;23848;49.798;10.228;2023-06-22T07:08:03;13.02;;;10.20;;
26756;SDS011;23848;49.798;10.228;2023-06-22T07:10:32;12.05;;;10.07;;
26756;SDS011;23848;49.798;10.228;2023-06-22T07:13:01;12.48;;;9.57;;
26756;SDS011;23848;49.798;10.228;2023-06-22T07:15:30;9.88;;;8.68;;
26756;SDS011;23848;49.798;10.228;2023-06-22T07:17:59;10.85;;;9.00;;
26756;SDS011;23848;49.798;10.228;2023-06-22T07:20:27;10.60;;;8.45;;
26756;SDS011;23848;49.798;10.228;2023-06-22T07:22:58;14.18;;;9.25;;
26756;SDS011;23848;49.798;10.228;2023-06-22T07:25:26;11.25;;;8.80;;
26756;SDS011;23848;49.798;10.228;2023-06-22T07:27:59;9.82;;;8.20;;
26756;SDS011;23848;49.798;10.228;2023-06-22T07:30:29;11.30;;;8.75;;
26756;SDS011;23848;49.798;10.228;2023-06-22T07:32:59;13.50;;;8.88;;
26756;SDS011;23848;49.798;10.228;2023-06-22T07:35:30;11.27;;;8.25;;
26756;SDS011;23848;49.798;10.228;2023-06-22T07:38:00;11.88;;;8.27;;
26756;SDS011;23848;49.798;10.228;2023-06-22T07:40:31;10.95;;;8.25;;
26756;SDS011;23848;49.798;10.228;2023-06-22T07:43:01;11.52;;;7.88;;
26756;SDS011;23848;49.798;10.228;2023-06-22T07:45:31;13.30;;;8.52;;
26756;SDS011;23848;49.798;10.228;2023-06-22T07:48:01;11.20;;;8.18;;
26756;SDS011;23848;49.798;10.228;2023-06-22T07:50:31;10.88;;;7.68;;
26756;SDS011;23848;49.798;10.228;2023-06-22T07:53:01;9.55;;;8.55;;
26756;SDS011;23848;49.798;10.228;2023-06-22T07:55:29;11.52;;;7.93;;
26756;SDS011;23848;49.798;10.228;2023-06-22T07:58:00;9.95;;;7.68;;
26756;SDS011;23848;49.798;10.228;2023-06-22T08:00:32;9.18;;;8.23;;
26756;SDS011;23848;49.798;10.228;2023-06-22T08:03:01;10.43;;;7.78;;
26756;SDS011;23848;49.798;10.228;2023-06-22T08:05:31;10.80;;;8.13;;
26756;SDS011;23848;49.798;10.228;2023-06-22T08:08:02;10.43;;;8.13;;
26756;SDS011;23848;49.798;10.228;2023-06-22T08:10:31;10.95;;;8.23;;
26756;SDS011;23848;49.798;10.228;2023-06-22T08:13:00;11.32;;;8.32;;
26756;SDS011;23848;49.798;10.228;2023-06-22T08:15:29;10.07;;;7.70;;
26756;SDS011;23848;49.798;10.228;2023-06-22T08:17:58;9.30;;;7.38;;
26756;SDS011;23848;49.798;10.228;2023-06-22T08:20:27;10.73;;;7.72;;
26756;SDS011;23848;49.798;10.228;2023-06-22T08:22:56;9.20;;;7.63;;
26756;SDS011;23848;49.798;10.228;2023-06-22T08:25:33;10.35;;;8.05;;
26756;SDS011;23848;49.798;10.228;2023-06-22T08:28:02;9.60;;;7.57;;
26756;SDS011;23848;49.798;10.228;2023-06-22T08:30:31;10.23;;;7.80;;
26756;SDS011;23848;49.798;10.228;2023-06-22T08:33:00;10.48;;;6.80;;
26756;SDS011;23848;49.798;10.228;2023-06-22T08:35:29;10.23;;;7.25;;
26756;SDS011;23848;49.798;10.228;2023-06-22T08:37:58;7.70;;;6.32;;
26756;SDS011;23848;49.798;10.228;2023-06-22T08:40:34;8.23;;;6.25;;
26756;SDS011;23848;49.798;10.228;2023-06-22T08:43:03;8.43;;;6.53;;
26756;SDS011;23848;49.798;10.228;2023-06-22T08:45:33;8.80;;;6.28;;
26756;SDS011;23848;49.798;10.228;2023-06-22T08:48:02;7.68;;;5.78;;
26756;SDS011;23848;49.798;10.228;2023-06-22T08:50:31;10.10;;;6.47;;
26756;SDS011;23848;49.798;10.228;2023-06-22T08:53:00;9.70;;;6.32;;
26756;SDS011;23848;49.798;10.228;2023-06-22T08:55:28;9.77;;;5.55;;
26756;SDS011;23848;49.798;10.228;2023-06-22T08:57:59;6.95;;;5.13;;
26756;SDS011;23848;49.798;10.228;2023-06-22T09:00:33;7.63;;;5.75;;
26756;SDS011;23848;49.798;10.228;2023-06-22T09:03:02;7.30;;;5.07;;
26756;SDS011;23848;49.798;10.228;2023-06-22T09:05:31;7.50;;;5.32;;
26756;SDS011;23848;49.798;10.228;2023-06-22T09:08:00;8.50;;;5.57;;
26756;SDS011;23848;49.798;10.228;2023-06-22T09:10:29;8.50;;;5.60;;
26756;SDS011;23848;49.798;10.228;2023-06-22T09:12:59;10.75;;;6.18;;
26756;SDS011;23848;49.798;10.228;2023-06-22T09:15:28;9.23;;;6.00;;
26756;SDS011;23848;49.798;10.228;2023-06-22T09:17:58;8.48;;;5.95;;
26756;SDS011;23848;49.798;10.228;2023-06-22T09:20:27;6.82;;;5.15;;
26756;SDS011;23848;49.798;10.228;2023-06-22T09:22:58;6.88;;;5.45;;
26756;SDS011;23848;49.798;10.228;2023-06-22T09:28:03;8.65;;;5.68;;
26756;SDS011;23848;49.798;10.228;2023-06-22T09:30:34;8.38;;;5.40;;
26756;SDS011;23848;49.798;10.228;2023-06-22T09:33:05;8.27;;;5.43;;
26756;SDS011;23848;49.798;10.228;2023-06-22T09:35:34;7.72;;;5.65;;
26756;SDS011;23848;49.798;10.228;2023-06-22T09:38:02;8.43;;;5.55;;
26756;SDS011;23848;49.798;10.228;2023-06-22T09:40:31;7.65;;;5.20;;
26756;SDS011;23848;49.798;10.228;2023-06-22T09:43:08;9.25;;;5.60;;
26756;SDS011;23848;49.798;10.228;2023-06-22T09:45:37;8.77;;;5.57;;
26756;SDS011;23848;49.798;10.228;2023-06-22T09:48:07;8.43;;;5.00;;
26756;SDS011;23848;49.798;10.228;2023-06-22T09:50:38;5.80;;;4.97;;
26756;SDS011;23848;49.798;10.228;2023-06-22T09:53:06;8.52;;;5.47;;
26756;SDS011;23848;49.798;10.228;2023-06-22T09:55:37;6.68;;;4.70;;
26756;SDS011;23848;49.798;10.228;2023-06-22T09:58:05;7.65;;;5.47;;
26756;SDS011;23848;49.798;10.228;2023-06-22T10:00:36;6.82;;;4.90;;
26756;SDS011;23848;49.798;10.228;2023-06-22T10:03:05;8.05;;;4.90;;
26756;SDS011;23848;49.798;10.228;2023-06-22T10:05:34;7.00;;;4.82;;
26756;SDS011;23848;49.798;10.228;2023-06-22T10:08:04;8.23;;;5.25;;
26756;SDS011;23848;49.798;10.228;2023-06-22T10:10:36;7.70;;;4.93;;
26756;SDS011;23848;49.798;10.228;2023-06-22T10:13:07;7.70;;;5.38;;
26756;SDS011;23848;49.798;10.228;2023-06-22T10:15:39;6.35;;;4.72;;
26756;SDS011;23848;49.798;10.228;2023-06-22T10:18:09;7.60;;;4.53;;
26756;SDS011;23848;49.798;10.228;2023-06-22T10:20:43;6.20;;;4.63;;
26756;SDS011;23848;49.798;10.228;2023-06-22T10:23:19;7.22;;;4.47;;
26756;SDS011;23848;49.798;10.228;2023-06-22T10:26:05;6.43;;;4.22;;
26756;SDS011;23848;49.798;10.228;2023-06-22T10:28:34;7.93;;;4.70;;
26756;SDS011;23848;49.798;10.228;2023-06-22T10:31:04;10.05;;;5.30;;
26756;SDS011;23848;49.798;10.228;2023-06-22T10:33:36;7.28;;;4.25;;
26756;SDS011;23848;49.798;10.228;2023-06-22T10:36:14;11.00;;;4.57;;
26756;SDS011;23848;49.798;10.228;2023-06-22T10:38:43;7.32;;;4.60;;
26756;SDS011;23848;49.798;10.228;2023-06-22T10:41:13;5.65;;;4.22;;
26756;SDS011;23848;49.798;10.228;2023-06-22T10:43:42;7.53;;;4.57;;
26756;SDS011;23848;49.798;10.228;2023-06-22T10:46:14;6.35;;;4.32;;
26756;SDS011;23848;49.798;10.228;2023-06-22T10:48:42;8.23;;;5.20;;
26756;SDS011;23848;49.798;10.228;2023-06-22T10:51:11;8.48;;;4.35;;
26756;SDS011;23848;49.798;10.228;2023-06-22T10:53:41;7.60;;;4.55;;
26756;SDS011;23848;49.798;10.228;2023-06-22T10:56:11;8.52;;;4.82;;
26756;SDS011;23848;49.798;10.228;2023-06-22T10:58:39;4.88;;;3.78;;
26756;SDS011;23848;49.798;10.228;2023-06-22T11:01:10;5.57;;;4.18;;
26756;SDS011;23848;49.798;10.228;2023-06-22T11:04:01;7.28;;;4.10;;
26756;SDS011;23848;49.798;10.228;2023-06-22T11:06:30;8.75;;;4.45;;
26756;SDS011;23848;49.798;10.228;2023-06-22T11:08:59;10.15;;;4.60;;
26756;SDS011;23848;49.798;10.228;2023-06-22T11:11:50;6.60;;;4.03;;
26756;SDS011;23848;49.798;10.228;2023-06-22T11:14:19;6.90;;;4.65;;
26756;SDS011;23848;49.798;10.228;2023-06-22T11:16:50;9.57;;;4.18;;
26756;SDS011;23848;49.798;10.228;2023-06-22T11:19:23;7.93;;;4.28;;
26756;SDS011;23848;49.798;10.228;2023-06-22T11:21:52;5.45;;;3.83;;
26756;SDS011;23848;49.798;10.228;2023-06-22T11:24:23;9.27;;;4.57;;
26756;SDS011;23848;49.798;10.228;2023-06-22T11:26:52;7.32;;;4.30;;
26756;SDS011;23848;49.798;10.228;2023-06-22T11:29:23;7.80;;;3.95;;
26756;SDS011;23848;49.798;10.228;2023-06-22T11:32:03;6.97;;;4.25;;
26756;SDS011;23848;49.798;10.228;2023-06-22T11:34:33;9.00;;;4.28;;
26756;SDS011;23848;49.798;10.228;2023-06-22T11:37:02;8.15;;;4.22;;
26756;SDS011;23848;49.798;10.228;2023-06-22T11:39:33;6.90;;;4.20;;
26756;SDS011;23848;49.798;10.228;2023-06-22T11:42:13;7.53;;;4.72;;
26756;SDS011;23848;49.798;10.228;2023-06-22T11:44:41;9.48;;;4.50;;
26756;SDS011;23848;49.798;10.228;2023-06-22T11:47:11;8.35;;;4.35;;
26756;SDS011;23848;49.798;10.228;2023-06-22T11:49:43;9.07;;;4.80;;
26756;SDS011;23848;49.798;10.228;2023-06-22T11:52:12;9.07;;;4.65;;
26756;SDS011;23848;49.798;10.228;2023-06-22T11:54:41;6.25;;;3.88;;
26756;SDS011;23848;49.798;10.228;2023-06-22T11:57:10;8.48;;;4.70;;
26756;SDS011;23848;49.798;10.228;2023-06-22T11:59:39;7.55;;;5.13;;
26756;SDS011;23848;49.798;10.228;2023-06-22T12:02:07;10.82;;;4.47;;
26756;SDS011;23848;49.798;10.228;2023-06-22T12:04:37;8.40;;;3.70;;
26756;SDS011;23848;49.798;10.228;2023-06-22T12:07:07;11.15;;;4.45;;
26756;SDS011;23848;49.798;10.228;2023-06-22T12:09:36;7.00;;;4.18;;
26756;SDS011;23848;49.798;10.228;2023-06-22T12:12:05;5.57;;;4.03;;
26756;SDS011;23848;49.798;10.228;2023-06-22T12:14:34;7.93;;;4.85;;
26756;SDS011;23848;49.798;10.228;2023-06-22T12:17:03;7.88;;;4.22;;
26756;SDS011;23848;49.798;10.228;2023-06-22T12:22:52;7.65;;;4.07;;
26756;SDS011;23848;49.798;10.228;2023-06-22T12:25:35;8.18;;;4.47;;
26756;SDS011;23848;49.798;10.228;2023-06-22T12:28:30;9.07;;;4.75;;
26756;SDS011;23848;49.798;10.228;2023-06-22T12:31:09;8.00;;;4.60;;
26756;SDS011;23848;49.798;10.228;2023-06-22T12:34:28;5.65;;;4.30;;
26756;SDS011;23848;49.798;10.228;2023-06-22T12:37:12;9.40;;;4.25;;
26756;SDS011;23848;49.798;10.228;2023-06-22T12:40:07;11.05;;;4.63;;
26756;SDS011;23848;49.798;10.228;2023-06-22T12:42:59;7.18;;;4.90;;
26756;SDS011;23848;49.798;10.228;2023-06-22T12:45:30;8.82;;;4.55;;
26756;SDS011;23848;49.798;10.228;2023-06-22T12:48:03;9.15;;;4.40;;
26756;SDS011;23848;49.798;10.228;2023-06-22T12:50:46;7.78;;;4.38;;
26756;SDS011;23848;49.798;10.228;2023-06-22T12:53:53;6.32;;;4.78;;
26756;SDS011;23848;49.798;10.228;2023-06-22T12:56:32;6.78;;;4.63;;
26756;SDS011;23848;49.798;10.228;2023-06-22T12:59:09;7.30;;;4.70;;
26756;SDS011;23848;49.798;10.228;2023-06-22T13:01:38;9.23;;;5.20;;
26756;SDS011;23848;49.798;10.228;2023-06-22T13:04:06;9.23;;;4.75;;
26756;SDS011;23848;49.798;10.228;2023-06-22T13:06:40;9.50;;;5.57;;
26756;SDS011;23848;49.798;10.228;2023-06-22T13:09:10;8.40;;;5.05;;
26756;SDS011;23848;49.798;10.228;2023-06-22T13:15:18;9.77;;;5.18;;
26756;SDS011;23848;49.798;10.228;2023-06-22T13:17:54;9.27;;;4.03;;
26756;SDS011;23848;49.798;10.228;2023-06-22T13:20:45;8.77;;;4.78;;
26756;SDS011;23848;49.798;10.228;2023-06-22T13:23:20;11.95;;;3.95;;
26756;SDS011;23848;49.798;10.228;2023-06-22T13:25:58;7.22;;;4.53;;
26756;SDS011;23848;49.798;10.228;2023-06-22T13:29:06;7.60;;;4.78;;
26756;SDS011;23848;49.798;10.228;2023-06-22T13:35:24;6.32;;;4.35;;
26756;SDS011;23848;49.798;10.228;2023-06-22T13:38:04;5.88;;;3.95;;
26756;SDS011;23848;49.798;10.228;2023-06-22T13:41:01;12.45;;;4.70;;
26756;SDS011;23848;49.798;10.228;2023-06-22T13:43:55;7.35;;;4.45;;
26756;SDS011;23848;49.798;10.228;2023-06-22T13:46:50;7.22;;;4.63;;
26756;SDS011;23848;49.798;10.228;2023-06-22T13:49:31;9.02;;;4.95;;
26756;SDS011;23848;49.798;10.228;2023-06-22T13:52:20;7.28;;;4.47;;
26756;SDS011;23848;49.798;10.228;2023-06-22T13:54:58;8.75;;;4.38;;
26756;SDS011;23848;49.798;10.228;2023-06-22T13:57:32;7.88;;;4.57;;
26756;SDS011;23848;49.798;10.228;2023-06-22T14:00:23;8.65;;;4.85;;
26756;SDS011;23848;49.798;10.228;2023-06-22T14:03:13;7.18;;;4.60;;
26756;SDS011;23848;49.798;10.228;2023-06-22T14:06:01;7.68;;;4.82;;
26756;SDS011;23848;49.798;10.228;2023-06-22T14:08:40;6.00;;;4.07;;
26756;SDS011;23848;49.798;10.228;2023-06-22T14:11:19;8.20;;;4.72;;
26756;SDS011;23848;49.798;10.228;2023-06-22T14:14:12;7.10;;;4.20;;
26756;SDS011;23848;49.798;10.228;2023-06-22T14:16:57;9.02;;;4.63;;
26756;SDS011;23848;49.798;10.228;2023-06-22T14:20:17;7.18;;;4.13;;
26756;SDS011;23848;49.798;10.228;2023-06-22T14:30:01;7.22;;;4.10;;
26756;SDS011;23848;49.798;10.228;2023-06-22T14:39:28;7.82;;;4.55;;
26756;SDS011;23848;49.798;10.228;2023-06-22T14:42:45;10.32;;;4.65;;
26756;SDS011;23848;49.798;10.228;2023-06-22T14:46:05;8.77;;;4.32;;
26756;SDS011;23848;49.798;10.228;2023-06-22T14:49:07;8.80;;;4.07;;
26756;SDS011;23848;49.798;10.228;2023-06-22T14:51:54;9.00;;;4.00;;
26756;SDS011;23848;49.798;10.228;2023-06-22T14:55:10;4.88;;;3.28;;
26756;SDS011;23848;49.798;10.228;2023-06-22T15:07:55;5.38;;;3.70;;
26756;SDS011;23848;49.798;10.228;2023-06-22T15:10:44;9.18;;;3.92;;
26756;SDS011;23848;49.798;10.228;2023-06-22T15:13:58;8.20;;;3.78;;
26756;SDS011;23848;49.798;10.228;2023-06-22T15:17:15;6.22;;;3.70;;
26756;SDS011;23848;49.798;10.228;2023-06-22T15:20:18;8.43;;;3.70;;
26756;SDS011;23848;49.798;10.228;2023-06-22T15:32:47;6.05;;;3.47;;
26756;SDS011;23848;49.798;10.228;2023-06-22T15:35:50;6.15;;;3.60;;
26756;SDS011;23848;49.798;10.228;2023-06-22T15:38:25;9.32;;;3.92;;
26756;SDS011;23848;49.798;10.228;2023-06-22T15:41:02;5.03;;;3.45;;
26756;SDS011;23848;49.798;10.228;2023-06-22T15:43:31;6.93;;;3.28;;